Time;durP1;ratioP1;P1;durP2;ratioP2;P2;SDS_P1;SDS_P2;PMS_P1;PMS_P2;Temp;Humidity;BMP_temperature;BMP_pressure;BME280_temperature;BME280_humidity;BME280_pressure;Samples;Min_cycle;Max_cycle;Signal;HPM_P1;HPM_P2
2021/11/13 00:01:46;;;;;;;9.23;8.30;;;;;;;;;;4974345;28;20207;-91
2021/11/13 00:04:13;;;;;;;14.20;9.37;;;;;;;;;;4974188;28;20207;-91
2021/11/13 00:06:40;;;;;;;10.13;8.43;;;;;;;;;;4974252;28;20315;-90
2021/11/13 00:09:10;;;;;;;8.90;7.67;;;;;;;;;;4974109;28;20296;-90
2021/11/13 00:11:38;;;;;;;10.50;8.50;;;;;;;;;;4974284;28;20200;-90
2021/11/13 00:14:05;;;;;;;9.37;7.57;;;;;;;;;;4974057;28;20197;-90
2021/11/13 00:16:33;;;;;;;8.40;7.60;;;;;;;;;;4974272;28;20213;-90
2021/11/13 00:19:01;;;;;;;10.70;8.57;;;;;;;;;;4974333;28;20677;-90
2021/11/13 00:21:29;;;;;;;10.20;8.70;;;;;;;;;;4974018;28;20207;-90
2021/11/13 00:23:56;;;;;;;11.33;8.23;;;;;;;;;;4973892;28;20267;-89
2021/11/13 00:26:25;;;;;;;8.27;7.50;;;;;;;;;;4973934;28;20311;-90
2021/11/13 00:28:52;;;;;;;11.90;8.00;;;;;;;;;;4973974;28;20301;-90
2021/11/13 00:31:19;;;;;;;10.17;8.63;;;;;;;;;;4973997;28;20200;-90
2021/11/13 00:33:46;;;;;;;11.60;8.87;;;;;;;;;;4973686;28;20233;-90
2021/11/13 00:36:14;;;;;;;9.13;8.23;;;;;;;;;;4974222;28;20197;-90
2021/11/13 00:38:41;;;;;;;9.43;8.43;;;;;;;;;;4973816;28;20208;-89
2021/11/13 00:41:08;;;;;;;9.33;8.23;;;;;;;;;;4977866;28;20224;-89
2021/11/13 00:43:37;;;;;;;10.27;7.93;;;;;;;;;;4977881;28;20304;-89
2021/11/13 00:46:05;;;;;;;8.80;7.83;;;;;;;;;;4978117;28;20207;-89
2021/11/13 00:48:32;;;;;;;9.60;7.57;;;;;;;;;;4977835;28;20244;-89
2021/11/13 00:51:00;;;;;;;8.57;7.40;;;;;;;;;;4977088;28;20193;-90
2021/11/13 00:53:27;;;;;;;9.20;7.43;;;;;;;;;;4977722;28;20295;-89
2021/11/13 00:55:54;;;;;;;9.07;8.17;;;;;;;;;;4977542;28;20296;-89
2021/11/13 00:58:22;;;;;;;9.07;8.13;;;;;;;;;;4977633;28;20233;-89
2021/11/13 01:00:51;;;;;;;11.80;9.00;;;;;;;;;;4977515;28;20243;-89
2021/11/13 01:03:18;;;;;;;9.90;8.90;;;;;;;;;;4977451;28;20205;-89
2021/11/13 01:05:45;;;;;;;11.30;7.90;;;;;;;;;;4977766;28;20200;-89
2021/11/13 01:08:13;;;;;;;8.73;7.93;;;;;;;;;;4977583;28;20715;-89
2021/11/13 01:10:40;;;;;;;9.57;8.33;;;;;;;;;;4977555;28;20288;-89
2021/11/13 01:13:07;;;;;;;9.93;8.37;;;;;;;;;;4977419;28;20304;-89
2021/11/13 01:15:35;;;;;;;8.00;7.30;;;;;;;;;;4977310;28;20213;-90
2021/11/13 01:18:04;;;;;;;12.10;8.20;;;;;;;;;;4977218;28;20197;-89
2021/11/13 01:20:31;;;;;;;9.57;8.27;;;;;;;;;;4977068;28;20216;-89
2021/11/13 01:22:59;;;;;;;7.63;6.83;;;;;;;;;;4977092;28;20232;-89
2021/11/13 01:25:27;;;;;;;9.30;7.30;;;;;;;;;;4977051;28;20236;-89
2021/11/13 01:27:55;;;;;;;8.00;7.03;;;;;;;;;;4976834;28;20232;-89
2021/11/13 01:30:22;;;;;;;10.07;7.50;;;;;;;;;;4976955;28;20197;-89
2021/11/13 01:32:49;;;;;;;8.63;7.73;;;;;;;;;;4977010;28;20658;-88
2021/11/13 01:35:21;;;;;;;9.10;7.93;;;;;;;;;;4976862;28;20189;-88
2021/11/13 01:37:49;;;;;;;11.30;8.30;;;;;;;;;;4976850;28;20185;-89
2021/11/13 01:40:18;;;;;;;9.10;8.17;;;;;;;;;;4976795;28;20197;-89
2021/11/13 01:42:46;;;;;;;8.17;7.17;;;;;;;;;;4976947;28;20673;-89
2021/11/13 01:45:14;;;;;;;9.63;8.30;;;;;;;;;;4976787;28;20204;-88
2021/11/13 01:47:41;;;;;;;10.33;8.93;;;;;;;;;;4976360;28;20220;-89
2021/11/13 01:50:11;;;;;;;9.63;8.50;;;;;;;;;;4976534;28;20211;-89
2021/11/13 01:52:40;;;;;;;12.87;9.57;;;;;;;;;;4976503;28;20201;-89
2021/11/13 01:55:08;;;;;;;8.60;7.70;;;;;;;;;;4976385;28;20207;-90
2021/11/13 01:57:44;;;;;;;12.07;9.57;;;;;;;;;;4976839;28;20208;-90
2021/11/13 02:00:16;;;;;;;12.23;9.97;;;;;;;;;;4976426;28;20188;-90
2021/11/13 02:02:43;;;;;;;12.67;10.10;;;;;;;;;;4976620;28;20696;-90
2021/11/13 02:05:11;;;;;;;11.23;8.63;;;;;;;;;;4976419;28;20295;-90
2021/11/13 02:07:38;;;;;;;7.90;7.10;;;;;;;;;;4976258;28;20229;-90
2021/11/13 02:10:09;;;;;;;12.40;7.83;;;;;;;;;;4976539;28;20725;-90
2021/11/13 02:12:36;;;;;;;9.00;8.07;;;;;;;;;;4976463;28;20284;-91
2021/11/13 02:15:05;;;;;;;11.07;8.03;;;;;;;;;;4976504;28;20201;-90
2021/11/13 02:17:32;;;;;;;9.57;8.67;;;;;;;;;;4976168;28;20220;-89
2021/11/13 02:20:19;;;;;;;9.27;8.17;;;;;;;;;;4976140;28;20209;-91
2021/11/13 02:22:46;;;;;;;8.87;7.63;;;;;;;;;;4976032;28;20181;-91
2021/11/13 02:25:16;;;;;;;9.03;8.07;;;;;;;;;;4976180;28;20204;-91
2021/11/13 02:27:44;;;;;;;11.27;8.47;;;;;;;;;;4975939;28;20260;-92
2021/11/13 02:30:11;;;;;;;8.57;7.73;;;;;;;;;;4976357;28;20216;-92
2021/11/13 02:32:39;;;;;;;11.43;7.63;;;;;;;;;;4976247;28;20288;-92
2021/11/13 02:35:08;;;;;;;9.20;8.27;;;;;;;;;;4975822;28;20708;-93
2021/11/13 02:37:38;;;;;;;9.83;8.30;;;;;;;;;;4976382;28;20725;-92
2021/11/13 02:40:07;;;;;;;28.60;23.37;;;;;;;;;;4976018;28;20209;-93
2021/11/13 02:42:35;;;;;;;80.30;64.97;;;;;;;;;;4975936;28;20197;-94
2021/11/13 02:45:03;;;;;;;23.70;21.17;;;;;;;;;;4976010;28;20586;-94
2021/11/13 02:47:31;;;;;;;16.07;14.47;;;;;;;;;;4975537;28;20221;-94
2021/11/13 02:49:59;;;;;;;10.87;8.60;;;;;;;;;;4975844;28;20209;-94
2021/11/13 02:52:26;;;;;;;7.03;6.33;;;;;;;;;;4975576;28;20197;-95
2021/11/13 02:54:55;;;;;;;9.03;7.17;;;;;;;;;;4975584;28;20197;-95
2021/11/13 02:57:22;;;;;;;9.40;7.30;;;;;;;;;;4975774;28;20200;-95
2021/11/13 02:59:50;;;;;;;10.97;8.10;;;;;;;;;;4975651;28;20296;-95
2021/11/13 03:02:18;;;;;;;13.87;10.00;;;;;;;;;;4975130;28;20292;-95
2021/11/13 03:04:45;;;;;;;11.23;7.63;;;;;;;;;;4975111;28;20197;-96
2021/11/13 03:07:12;;;;;;;11.30;7.90;;;;;;;;;;4975516;28;20245;-95
2021/11/13 03:09:39;;;;;;;19.57;15.53;;;;;;;;;;4975191;28;20205;-95
2021/11/13 03:12:09;;;;;;;68.33;52.67;;;;;;;;;;4975238;28;20201;-96
2021/11/13 03:14:36;;;;;;;21.00;16.63;;;;;;;;;;4975531;28;20224;-95
2021/11/13 03:17:06;;;;;;;31.73;28.43;;;;;;;;;;4975152;28;20241;-95
2021/11/13 03:19:33;;;;;;;22.93;16.53;;;;;;;;;;4975050;28;20233;-95
2021/11/13 03:22:01;;;;;;;26.73;23.93;;;;;;;;;;4975052;28;20211;-96
2021/11/13 03:24:29;;;;;;;24.13;21.53;;;;;;;;;;4974926;28;20197;-95
2021/11/13 03:26:58;;;;;;;18.53;13.13;;;;;;;;;;4975215;28;20299;-96
2021/11/13 03:29:29;;;;;;;25.80;23.07;;;;;;;;;;4974963;28;20205;-96
2021/11/13 03:31:57;;;;;;;13.47;10.83;;;;;;;;;;4975209;28;20208;-95
2021/11/13 03:34:25;;;;;;;10.97;9.03;;;;;;;;;;4974937;28;20237;-96
2021/11/13 03:36:52;;;;;;;9.90;8.53;;;;;;;;;;4974723;28;20280;-95
2021/11/13 03:39:19;;;;;;;18.17;14.63;;;;;;;;;;4974907;28;20292;-96
2021/11/13 03:41:46;;;;;;;19.73;11.63;;;;;;;;;;4974846;28;20331;-96
2021/11/13 03:44:14;;;;;;;14.77;8.87;;;;;;;;;;4974954;28;20220;-95
2021/11/13 03:46:43;;;;;;;11.93;9.40;;;;;;;;;;4974789;28;20284;-96
2021/11/13 03:49:10;;;;;;;14.73;9.13;;;;;;;;;;4974621;28;20231;-96
2021/11/13 03:51:37;;;;;;;12.83;9.10;;;;;;;;;;4974522;28;20189;-96
2021/11/13 03:54:05;;;;;;;11.00;8.93;;;;;;;;;;4974685;28;20201;-94
2021/11/13 03:56:32;;;;;;;11.77;9.17;;;;;;;;;;4974521;28;20288;-96
2021/11/13 03:59:04;;;;;;;21.10;14.87;;;;;;;;;;4974794;28;20268;-96
2021/11/13 04:01:32;;;;;;;21.80;17.83;;;;;;;;;;4974996;28;20259;-95
2021/11/13 04:04:01;;;;;;;26.73;19.37;;;;;;;;;;4974822;28;20582;-94
2021/11/13 04:06:28;;;;;;;27.80;20.07;;;;;;;;;;4974401;28;20201;-94
2021/11/13 04:08:56;;;;;;;15.77;12.07;;;;;;;;;;4974257;28;20252;-94
2021/11/13 04:11:23;;;;;;;20.10;11.27;;;;;;;;;;4974347;28;20211;-95
2021/11/13 04:13:50;;;;;;;20.47;13.57;;;;;;;;;;4973954;28;20193;-95
2021/11/13 04:16:17;;;;;;;22.90;13.33;;;;;;;;;;4974299;28;20201;-95
2021/11/13 04:18:45;;;;;;;21.53;11.63;;;;;;;;;;4974366;28;20280;-96
2021/11/13 04:21:14;;;;;;;38.90;25.20;;;;;;;;;;4974228;28;20201;-95
2021/11/13 04:23:41;;;;;;;22.60;15.83;;;;;;;;;;4974657;28;20276;-96
2021/11/13 04:26:10;;;;;;;25.50;14.60;;;;;;;;;;4974348;28;20209;-95
2021/11/13 04:28:37;;;;;;;22.87;14.90;;;;;;;;;;4974301;28;20235;-96
2021/11/13 04:31:05;;;;;;;25.93;15.50;;;;;;;;;;4974246;28;20741;-96
2021/11/13 04:33:34;;;;;;;23.67;14.80;;;;;;;;;;4973826;28;20320;-95
2021/11/13 04:36:04;;;;;;;24.67;14.47;;;;;;;;;;4973991;28;20193;-96
2021/11/13 04:38:36;;;;;;;22.20;13.80;;;;;;;;;;4973972;28;20231;-96
2021/11/13 04:41:06;;;;;;;24.40;15.50;;;;;;;;;;4974354;28;20693;-96
2021/11/13 04:43:33;;;;;;;32.47;19.73;;;;;;;;;;4974498;28;20284;-96
2021/11/13 04:46:01;;;;;;;62.40;34.77;;;;;;;;;;4974376;28;20232;-96
2021/11/13 04:48:28;;;;;;;57.83;29.07;;;;;;;;;;4973945;28;20275;-95
2021/11/13 04:50:57;;;;;;;35.77;22.43;;;;;;;;;;4974021;28;20225;-96
2021/11/13 04:53:24;;;;;;;35.07;22.97;;;;;;;;;;4974260;28;20255;-95
2021/11/13 04:55:53;;;;;;;29.53;16.20;;;;;;;;;;4974309;28;20661;-95
2021/11/13 04:58:21;;;;;;;35.40;22.07;;;;;;;;;;4974194;28;20217;-95
2021/11/13 05:00:48;;;;;;;54.20;36.23;;;;;;;;;;4973917;28;20231;-95
2021/11/13 05:03:16;;;;;;;51.80;29.90;;;;;;;;;;4973855;28;20227;-94
2021/11/13 05:05:43;;;;;;;42.07;26.40;;;;;;;;;;4973765;28;20193;-95
2021/11/13 05:08:11;;;;;;;37.83;22.97;;;;;;;;;;4973715;28;20715;-94
2021/11/13 05:10:38;;;;;;;34.23;19.97;;;;;;;;;;4973878;28;20216;-95
2021/11/13 05:13:07;;;;;;;33.17;17.93;;;;;;;;;;4973706;28;20284;-95
2021/11/13 05:15:34;;;;;;;29.83;17.40;;;;;;;;;;4973772;28;20197;-95
2021/11/13 05:18:02;;;;;;;26.93;17.20;;;;;;;;;;4973742;28;20205;-95
2021/11/13 05:20:29;;;;;;;31.17;17.97;;;;;;;;;;4973895;28;20201;-94
2021/11/13 05:22:57;;;;;;;34.43;16.57;;;;;;;;;;4974019;28;20275;-95
2021/11/13 05:25:24;;;;;;;34.07;18.53;;;;;;;;;;4973624;28;20240;-96
2021/11/13 05:27:52;;;;;;;33.97;19.97;;;;;;;;;;4976668;28;20590;-95
2021/11/13 05:30:23;;;;;;;38.50;20.70;;;;;;;;;;4977187;28;20201;-94
2021/11/13 05:32:50;;;;;;;33.10;20.37;;;;;;;;;;4977299;28;20627;-94
2021/11/13 05:35:18;;;;;;;42.83;23.70;;;;;;;;;;4978361;28;20292;-96
2021/11/13 05:37:46;;;;;;;37.80;22.60;;;;;;;;;;4977246;28;20209;-96
2021/11/13 05:40:14;;;;;;;31.77;20.40;;;;;;;;;;4979103;28;20205;-95
2021/11/13 05:42:42;;;;;;;37.87;22.73;;;;;;;;;;4977602;28;20223;-96
2021/11/13 05:45:12;;;;;;;37.50;24.77;;;;;;;;;;4977134;28;20205;-96
2021/11/13 05:47:41;;;;;;;44.50;25.80;;;;;;;;;;4977054;28;20217;-96
2021/11/13 05:50:12;;;;;;;33.50;21.07;;;;;;;;;;4977161;28;20709;-96
2021/11/13 05:52:40;;;;;;;37.23;23.20;;;;;;;;;;4976932;28;20268;-96
2021/11/13 05:55:09;;;;;;;39.07;23.37;;;;;;;;;;4976886;28;20712;-95
2021/11/13 05:57:36;;;;;;;40.43;21.83;;;;;;;;;;4976729;28;20615;-96
2021/11/13 06:00:05;;;;;;;43.33;24.97;;;;;;;;;;4976746;28;20225;-96
2021/11/13 06:02:32;;;;;;;43.20;24.80;;;;;;;;;;4970381;28;20268;-96
2021/11/13 06:05:01;;;;;;;45.23;23.60;;;;;;;;;;4957687;29;20206;-96
2021/11/13 06:07:29;;;;;;;44.90;24.80;;;;;;;;;;4957301;28;20702;-96
2021/11/13 06:09:56;;;;;;;35.17;25.83;;;;;;;;;;4960555;28;20240;-96
2021/11/13 06:12:23;;;;;;;42.87;21.73;;;;;;;;;;4957107;29;20216;-92
2021/11/13 06:14:50;;;;;;;44.77;28.97;;;;;;;;;;4957345;28;20194;-94
2021/11/13 06:17:18;;;;;;;32.83;23.07;;;;;;;;;;4972896;28;20296;-93
2021/11/13 06:19:45;;;;;;;48.67;25.13;;;;;;;;;;4976111;28;20292;-93
2021/11/13 06:22:14;;;;;;;33.50;23.57;;;;;;;;;;4976263;28;20702;-94
2021/11/13 06:24:41;;;;;;;31.37;20.13;;;;;;;;;;4976077;28;20289;-94
2021/11/13 06:27:09;;;;;;;37.80;20.87;;;;;;;;;;4976124;28;20635;-93
2021/11/13 06:29:36;;;;;;;34.03;18.50;;;;;;;;;;4975864;28;20256;-94
2021/11/13 06:32:04;;;;;;;33.33;20.67;;;;;;;;;;4975717;28;20288;-96
2021/11/13 06:34:31;;;;;;;27.80;18.90;;;;;;;;;;4976005;28;20237;-96
2021/11/13 06:36:58;;;;;;;26.77;17.63;;;;;;;;;;4975820;28;20270;-96
2021/11/13 06:39:27;;;;;;;24.87;15.70;;;;;;;;;;4976917;28;20284;-96
2021/11/13 06:41:54;;;;;;;27.83;17.17;;;;;;;;;;4979539;28;20200;-96
2021/11/13 06:44:27;;;;;;;29.00;20.00;;;;;;;;;;4995258;28;20197;-96
2021/11/13 06:46:55;;;;;;;63.70;39.57;;;;;;;;;;5001409;23;20244;-93
2021/11/13 06:49:22;;;;;;;62.33;41.37;;;;;;;;;;4975807;28;20725;-93
2021/11/13 06:51:49;;;;;;;38.13;28.73;;;;;;;;;;4975631;28;20211;-93
2021/11/13 06:54:17;;;;;;;121.63;65.57;;;;;;;;;;4977791;28;20197;-95
2021/11/13 06:56:49;;;;;;;110.50;61.63;;;;;;;;;;5023848;23;20217;-96
2021/11/13 06:59:40;;;;;;;33.77;22.63;;;;;;;;;;4968310;28;20601;-96
2021/11/13 07:02:10;;;;;;;27.83;18.00;;;;;;;;;;5524386;23;21141;-96
2021/11/13 07:04:37;;;;;;;27.53;22.33;;;;;;;;;;5657587;23;20374;-96
2021/11/13 07:07:05;;;;;;;35.40;23.87;;;;;;;;;;5270163;23;20323;-92
2021/11/13 07:09:32;;;;;;;34.00;25.00;;;;;;;;;;4975257;28;20232;-92
2021/11/13 07:12:01;;;;;;;204.80;98.83;;;;;;;;;;4975638;28;20303;-92
2021/11/13 07:14:28;;;;;;;75.77;42.40;;;;;;;;;;4975722;28;20201;-93
2021/11/13 07:16:55;;;;;;;22.10;15.97;;;;;;;;;;4975336;28;20255;-92
2021/11/13 07:19:23;;;;;;;17.70;13.87;;;;;;;;;;4975236;28;20601;-92
2021/11/13 07:21:50;;;;;;;13.77;11.17;;;;;;;;;;4974798;28;20212;-93
2021/11/13 07:24:17;;;;;;;13.50;10.80;;;;;;;;;;4975049;28;20283;-93
2021/11/13 07:26:51;;;;;;;12.00;9.27;;;;;;;;;;4975036;28;20667;-93
2021/11/13 07:29:20;;;;;;;12.03;9.07;;;;;;;;;;4975050;28;20269;-92
2021/11/13 07:31:48;;;;;;;10.07;8.83;;;;;;;;;;4974626;28;20227;-92
2021/11/13 07:34:15;;;;;;;9.93;8.20;;;;;;;;;;4973849;28;20228;-93
2021/11/13 07:36:42;;;;;;;12.23;9.50;;;;;;;;;;4955830;29;20261;-93
2021/11/13 07:39:09;;;;;;;11.70;10.23;;;;;;;;;;4955414;29;20293;-93
2021/11/13 07:41:37;;;;;;;17.77;11.90;;;;;;;;;;4955420;29;20281;-93
2021/11/13 07:44:05;;;;;;;13.43;10.23;;;;;;;;;;4955347;29;20198;-93
2021/11/13 07:46:34;;;;;;;13.57;10.13;;;;;;;;;;4955338;29;20209;-94
2021/11/13 07:49:02;;;;;;;13.07;10.37;;;;;;;;;;4954946;28;20280;-93
2021/11/13 07:51:29;;;;;;;13.00;10.33;;;;;;;;;;4955519;29;20276;-92
2021/11/13 07:53:56;;;;;;;14.33;12.13;;;;;;;;;;4955082;29;20292;-93
2021/11/13 07:56:23;;;;;;;12.67;10.50;;;;;;;;;;4955148;29;20210;-93
2021/11/13 07:58:51;;;;;;;16.00;10.83;;;;;;;;;;4955125;29;20682;-93
2021/11/13 08:01:18;;;;;;;38.50;34.63;;;;;;;;;;4955367;29;20702;-93
2021/11/13 08:03:47;;;;;;;13.30;10.97;;;;;;;;;;4955301;29;20190;-93
2021/11/13 08:06:14;;;;;;;12.27;10.23;;;;;;;;;;4955306;29;20225;-94
2021/11/13 08:08:42;;;;;;;13.87;11.30;;;;;;;;;;4954726;29;20671;-93
2021/11/13 08:11:10;;;;;;;20.40;17.27;;;;;;;;;;4954987;29;20202;-93
2021/11/13 08:13:39;;;;;;;23.20;18.70;;;;;;;;;;4955330;29;20206;-88
2021/11/13 08:16:07;;;;;;;18.00;14.80;;;;;;;;;;4954679;28;20206;-89
2021/11/13 08:18:34;;;;;;;16.23;14.07;;;;;;;;;;4954476;29;20285;-87
2021/11/13 08:21:03;;;;;;;16.33;13.47;;;;;;;;;;4965552;28;20229;-88
2021/11/13 08:23:30;;;;;;;17.77;13.23;;;;;;;;;;4973997;28;20201;-87
2021/11/13 08:25:58;;;;;;;15.53;12.57;;;;;;;;;;4974041;28;20207;-89
2021/11/13 08:28:26;;;;;;;20.60;17.60;;;;;;;;;;4973763;28;20205;-89
2021/11/13 08:30:54;;;;;;;18.70;16.07;;;;;;;;;;4973940;28;20201;-88
2021/11/13 08:33:21;;;;;;;14.90;12.60;;;;;;;;;;4973906;28;20344;-88
2021/11/13 08:35:49;;;;;;;100.13;51.57;;;;;;;;;;4973863;28;20205;-88
2021/11/13 08:38:21;;;;;;;27.50;19.93;;;;;;;;;;4973574;28;20201;-89
2021/11/13 08:40:49;;;;;;;29.27;19.60;;;;;;;;;;4973669;28;20273;-89
2021/11/13 08:43:17;;;;;;;17.70;14.30;;;;;;;;;;4973626;28;20211;-89
2021/11/13 08:45:45;;;;;;;18.00;14.67;;;;;;;;;;4973465;28;20296;-89
2021/11/13 08:48:12;;;;;;;18.13;14.47;;;;;;;;;;4973852;28;20207;-88
2021/11/13 08:50:40;;;;;;;17.40;13.80;;;;;;;;;;4973507;28;20223;-88
2021/11/13 08:53:08;;;;;;;17.37;14.97;;;;;;;;;;4973706;28;20761;-88
2021/11/13 08:55:38;;;;;;;14.30;12.13;;;;;;;;;;4973355;28;20296;-88
2021/11/13 08:58:07;;;;;;;27.57;24.67;;;;;;;;;;4973728;28;20204;-88
2021/11/13 09:00:37;;;;;;;37.33;27.83;;;;;;;;;;4969739;28;20296;-88
2021/11/13 09:03:07;;;;;;;23.20;18.93;;;;;;;;;;4958103;29;20202;-88
2021/11/13 09:05:34;;;;;;;18.90;16.23;;;;;;;;;;4958863;29;20280;-89
2021/11/13 09:08:02;;;;;;;28.90;25.83;;;;;;;;;;4957866;29;20240;-88
2021/11/13 09:10:30;;;;;;;17.53;15.10;;;;;;;;;;4958139;29;20300;-87
2021/11/13 09:13:00;;;;;;;18.30;13.33;;;;;;;;;;4957967;29;20257;-88
2021/11/13 09:15:29;;;;;;;18.83;14.07;;;;;;;;;;4957887;29;20217;-88
2021/11/13 09:17:57;;;;;;;16.53;14.77;;;;;;;;;;4957880;29;20198;-89
2021/11/13 09:20:27;;;;;;;17.40;15.00;;;;;;;;;;4957521;29;20265;-88
2021/11/13 09:22:54;;;;;;;18.87;14.83;;;;;;;;;;4957918;29;20236;-89
2021/11/13 09:25:22;;;;;;;16.27;14.40;;;;;;;;;;4957938;29;20206;-88
2021/11/13 09:27:50;;;;;;;16.47;14.70;;;;;;;;;;4962722;28;20196;-89
2021/11/13 09:30:21;;;;;;;16.23;14.10;;;;;;;;;;4957757;29;20225;-89
2021/11/13 09:32:48;;;;;;;16.03;12.27;;;;;;;;;;4957704;29;20190;-89
2021/11/13 09:35:17;;;;;;;15.30;12.47;;;;;;;;;;4957463;28;20198;-89
2021/11/13 09:37:46;;;;;;;13.80;12.30;;;;;;;;;;4957855;29;20602;-89
2021/11/13 09:40:16;;;;;;;17.23;15.03;;;;;;;;;;4957364;29;20202;-88
2021/11/13 09:42:44;;;;;;;15.60;12.90;;;;;;;;;;4957596;29;20296;-89
2021/11/13 09:45:12;;;;;;;16.17;14.00;;;;;;;;;;4957172;29;20197;-89
2021/11/13 09:47:40;;;;;;;17.03;15.20;;;;;;;;;;4957371;28;20202;-89
2021/11/13 09:50:08;;;;;;;17.10;14.57;;;;;;;;;;4957257;28;20229;-92
2021/11/13 09:52:35;;;;;;;19.30;16.07;;;;;;;;;;4957499;29;20198;-93
2021/11/13 09:55:04;;;;;;;22.30;17.37;;;;;;;;;;4957181;29;20292;-93
2021/11/13 09:57:32;;;;;;;15.30;13.67;;;;;;;;;;4957327;29;20194;-90
2021/11/13 09:59:59;;;;;;;15.00;13.50;;;;;;;;;;4964776;28;20657;-89
2021/11/13 10:02:26;;;;;;;16.97;14.73;;;;;;;;;;4976475;28;20261;-89
2021/11/13 10:04:55;;;;;;;23.07;16.83;;;;;;;;;;4976530;28;20213;-90
2021/11/13 10:07:22;;;;;;;21.77;17.27;;;;;;;;;;4976395;28;20236;-90
2021/11/13 10:09:50;;;;;;;17.17;13.87;;;;;;;;;;4976143;28;20235;-91
2021/11/13 10:12:18;;;;;;;21.77;17.60;;;;;;;;;;4976015;28;20197;-90
2021/11/13 10:14:45;;;;;;;21.03;17.90;;;;;;;;;;4976192;28;20212;-96
2021/11/13 10:17:21;;;;;;;22.33;17.17;;;;;;;;;;4959722;28;20202;-89
2021/11/13 10:19:49;;;;;;;19.87;16.00;;;;;;;;;;4970122;28;20197;-92
2021/11/13 10:22:18;;;;;;;19.60;15.70;;;;;;;;;;4975253;28;20672;-93
2021/11/13 10:24:48;;;;;;;17.33;14.47;;;;;;;;;;4975765;28;20595;-93
2021/11/13 10:27:16;;;;;;;19.07;14.93;;;;;;;;;;4990852;28;20207;-88
2021/11/13 10:29:47;;;;;;;20.90;15.87;;;;;;;;;;4995230;28;20373;-89
2021/11/13 10:32:16;;;;;;;17.40;14.97;;;;;;;;;;4982222;28;20232;-91
2021/11/13 10:34:46;;;;;;;21.07;17.37;;;;;;;;;;4975998;28;20211;-89
2021/11/13 10:37:19;;;;;;;17.20;14.47;;;;;;;;;;4971376;28;20261;-89
2021/11/13 10:39:47;;;;;;;19.63;16.73;;;;;;;;;;4970078;28;20555;-91
2021/11/13 10:42:17;;;;;;;20.03;16.03;;;;;;;;;;4975449;28;20224;-93
2021/11/13 10:44:48;;;;;;;18.70;15.60;;;;;;;;;;4975525;28;20280;-96
2021/11/13 10:47:17;;;;;;;17.27;14.57;;;;;;;;;;4976088;28;20212;-94
2021/11/13 10:49:45;;;;;;;16.63;12.87;;;;;;;;;;4975415;28;20702;-91
2021/11/13 10:52:15;;;;;;;16.30;14.60;;;;;;;;;;4967686;28;20209;-92
2021/11/13 10:54:47;;;;;;;15.70;13.83;;;;;;;;;;4969050;28;20240;-92
2021/11/13 10:57:15;;;;;;;18.40;11.37;;;;;;;;;;4975467;28;20189;-91
2021/11/13 10:59:44;;;;;;;34.40;29.67;;;;;;;;;;4975196;28;20292;-91
2021/11/13 11:02:13;;;;;;;16.83;14.00;;;;;;;;;;4975118;28;20279;-96
2021/11/13 11:04:42;;;;;;;16.73;15.03;;;;;;;;;;4975127;28;21080;-92
2021/11/13 11:07:15;;;;;;;15.63;13.93;;;;;;;;;;4976318;28;20237;-92
2021/11/13 11:09:45;;;;;;;16.50;13.87;;;;;;;;;;4978175;28;20229;-91
2021/11/13 11:12:14;;;;;;;33.97;27.97;;;;;;;;;;4975584;28;20201;-91
2021/11/13 11:14:43;;;;;;;17.50;14.40;;;;;;;;;;4975559;28;20193;-91
2021/11/13 11:17:13;;;;;;;18.70;15.60;;;;;;;;;;4975440;28;20588;-92
2021/11/13 11:19:58;;;;;;;;;;;;;;;;;;;;;
2021/11/13 11:22:27;;;;;;;14.70;12.33;;;;;;;;;;4975173;28;20208;-91
2021/11/13 11:24:57;;;;;;;17.00;13.23;;;;;;;;;;4974027;28;20197;-91
2021/11/13 11:27:26;;;;;;;17.10;13.97;;;;;;;;;;4975003;28;20209;-91
2021/11/13 11:29:56;;;;;;;14.67;13.13;;;;;;;;;;4974839;28;20252;-91
2021/11/13 11:32:27;;;;;;;15.40;13.50;;;;;;;;;;4974984;28;20200;-91
2021/11/13 11:34:56;;;;;;;14.63;12.50;;;;;;;;;;4974840;28;20209;-91
2021/11/13 11:37:26;;;;;;;12.90;11.50;;;;;;;;;;4974923;28;20284;-91
2021/11/13 11:39:57;;;;;;;14.17;11.77;;;;;;;;;;4969840;28;20309;-91
2021/11/13 11:42:25;;;;;;;17.03;13.53;;;;;;;;;;4974711;28;20284;-91
2021/11/13 11:44:53;;;;;;;15.57;13.30;;;;;;;;;;4974709;28;20204;-93
2021/11/13 11:47:23;;;;;;;20.07;15.73;;;;;;;;;;4969180;28;20210;-91
2021/11/13 11:49:53;;;;;;;19.70;14.23;;;;;;;;;;4955567;29;20725;-92
2021/11/13 11:52:23;;;;;;;18.53;16.13;;;;;;;;;;4955660;29;20226;-92
2021/11/13 11:54:51;;;;;;;16.30;13.50;;;;;;;;;;4955447;29;20212;-92
2021/11/13 11:57:25;;;;;;;18.50;12.93;;;;;;;;;;4955324;29;20227;-92
2021/11/13 11:59:56;;;;;;;21.53;14.57;;;;;;;;;;4955337;29;20209;-91
2021/11/13 12:02:24;;;;;;;18.07;14.40;;;;;;;;;;4955284;29;20218;-92
2021/11/13 12:04:51;;;;;;;14.03;12.40;;;;;;;;;;4955369;29;20204;-93
2021/11/13 12:07:32;;;;;;;15.10;13.57;;;;;;;;;;4955020;29;20718;-93
2021/11/13 12:10:05;;;;;;;16.00;12.53;;;;;;;;;;4954867;29;20229;-93
2021/11/13 12:12:34;;;;;;;14.87;12.63;;;;;;;;;;4955402;29;20194;-91
2021/11/13 12:15:16;;;;;;;16.47;13.43;;;;;;;;;;4955069;29;20198;-93
2021/11/13 12:17:44;;;;;;;16.67;14.63;;;;;;;;;;4954796;29;20196;-93
2021/11/13 12:20:25;;;;;;;16.27;12.93;;;;;;;;;;4955178;29;20676;-93
2021/11/13 12:22:57;;;;;;;16.63;14.37;;;;;;;;;;4955046;29;20198;-94
2021/11/13 12:25:28;;;;;;;21.23;15.83;;;;;;;;;;4955044;29;20233;-92
2021/11/13 12:28:18;;;;;;;16.33;12.77;;;;;;;;;;4955329;29;20714;-94
2021/11/13 12:31:09;;;;;;;20.47;17.73;;;;;;;;;;4955190;29;20596;-93
2021/11/13 12:34:01;;;;;;;24.67;21.27;;;;;;;;;;4955012;29;20205;-92
2021/11/13 12:36:32;;;;;;;21.30;16.07;;;;;;;;;;4954461;29;20193;-92
2021/11/13 12:39:06;;;;;;;24.00;20.27;;;;;;;;;;4955107;29;20190;-93
2021/11/13 12:41:45;;;;;;;18.93;16.50;;;;;;;;;;4954759;29;20188;-92
2021/11/13 12:44:30;;;;;;;21.60;15.53;;;;;;;;;;4954910;29;20277;-92
2021/11/13 12:47:03;;;;;;;20.73;17.27;;;;;;;;;;4954903;29;20236;-92
2021/11/13 12:49:45;;;;;;;16.40;14.70;;;;;;;;;;4954585;29;20205;-91
2021/11/13 12:52:22;;;;;;;17.30;14.93;;;;;;;;;;4954675;29;20269;-91
2021/11/13 12:55:07;;;;;;;15.77;13.77;;;;;;;;;;4954574;29;20190;-92
2021/11/13 12:57:36;;;;;;;22.90;20.33;;;;;;;;;;4954453;29;20197;-94
2021/11/13 13:00:10;;;;;;;26.10;17.83;;;;;;;;;;4962524;28;20235;-92
2021/11/13 13:02:38;;;;;;;23.37;19.53;;;;;;;;;;4968794;28;20198;-94
2021/11/13 13:05:07;;;;;;;50.83;35.33;;;;;;;;;;4973991;28;20660;-92
2021/11/13 13:07:34;;;;;;;27.10;22.17;;;;;;;;;;4973748;28;20239;-93
2021/11/13 13:10:03;;;;;;;16.53;14.87;;;;;;;;;;4973731;28;20687;-92
2021/11/13 13:12:34;;;;;;;19.23;16.57;;;;;;;;;;4973587;28;20679;-91
2021/11/13 13:15:04;;;;;;;17.97;16.17;;;;;;;;;;4973920;28;20193;-93
2021/11/13 13:17:35;;;;;;;19.67;16.83;;;;;;;;;;4973778;28;20657;-92
2021/11/13 13:20:02;;;;;;;17.83;15.23;;;;;;;;;;4973629;28;20642;-93
2021/11/13 13:22:30;;;;;;;16.37;14.67;;;;;;;;;;4973471;28;20199;-93
2021/11/13 13:24:59;;;;;;;21.03;17.53;;;;;;;;;;4973691;28;20205;-92
2021/11/13 13:27:28;;;;;;;21.23;17.03;;;;;;;;;;4973500;28;20197;-93
2021/11/13 13:29:58;;;;;;;19.97;15.77;;;;;;;;;;4973366;28;20272;-93
2021/11/13 13:32:27;;;;;;;19.70;16.83;;;;;;;;;;4973403;28;20197;-93
2021/11/13 13:34:59;;;;;;;20.10;16.07;;;;;;;;;;4973659;28;20732;-91
2021/11/13 13:37:29;;;;;;;21.53;19.03;;;;;;;;;;4973694;28;20200;-92
2021/11/13 13:39:59;;;;;;;21.57;17.00;;;;;;;;;;4973274;28;20201;-94
2021/11/13 13:42:34;;;;;;;20.27;15.67;;;;;;;;;;4973660;28;20189;-93
2021/11/13 13:45:02;;;;;;;19.17;16.83;;;;;;;;;;4973534;28;20261;-93
2021/11/13 13:47:30;;;;;;;20.73;14.70;;;;;;;;;;4974798;28;20205;-92
2021/11/13 13:50:00;;;;;;;19.80;15.33;;;;;;;;;;4976919;28;20212;-92
2021/11/13 13:52:35;;;;;;;22.20;16.60;;;;;;;;;;4976694;28;20703;-92
2021/11/13 13:55:03;;;;;;;16.40;13.90;;;;;;;;;;4976082;28;20263;-92
2021/11/13 13:57:30;;;;;;;17.97;15.77;;;;;;;;;;4976905;28;20201;-93
2021/11/13 14:00:00;;;;;;;19.10;16.07;;;;;;;;;;4976578;28;20201;-93
2021/11/13 14:02:28;;;;;;;23.17;20.03;;;;;;;;;;4976515;28;20208;-92
2021/11/13 14:04:58;;;;;;;22.87;19.93;;;;;;;;;;4976630;28;20209;-93
2021/11/13 14:07:26;;;;;;;18.33;15.03;;;;;;;;;;4976306;28;20726;-92
2021/11/13 14:10:07;;;;;;;23.27;17.03;;;;;;;;;;4976613;28;20616;-93
2021/11/13 14:12:45;;;;;;;16.97;14.63;;;;;;;;;;4976577;28;20677;-93
2021/11/13 14:15:14;;;;;;;20.03;15.60;;;;;;;;;;4976572;28;20590;-91
2021/11/13 14:17:41;;;;;;;21.30;17.33;;;;;;;;;;4975728;28;20201;-92
2021/11/13 14:20:15;;;;;;;25.10;19.97;;;;;;;;;;4976115;28;20201;-91
2021/11/13 14:23:04;;;;;;;32.00;23.83;;;;;;;;;;4976283;28;20185;-91
2021/11/13 14:25:39;;;;;;;41.07;31.07;;;;;;;;;;4976033;28;20193;-91
2021/11/13 14:28:07;;;;;;;39.53;28.90;;;;;;;;;;4976344;28;20193;-90
2021/11/13 14:30:42;;;;;;;38.43;30.73;;;;;;;;;;4976133;28;20472;-90
2021/11/13 14:33:09;;;;;;;34.77;25.33;;;;;;;;;;4976432;28;20661;-91
2021/11/13 14:35:38;;;;;;;40.90;31.97;;;;;;;;;;4976209;28;20212;-91